Time;durP1;ratioP1;P1;durP2;ratioP2;P2;SDS_P1;SDS_P2;PMS_P1;PMS_P2;Temp;Humidity;BMP_temperature;BMP_pressure;BME280_temperature;BME280_humidity;BME280_pressure;Samples;Min_cycle;Max_cycle;Signal;HPM_P1;HPM_P2
2023/01/22 00:09:21;;;;;;;15.60;6.88;;;-0.70;99.90;;;;;;20471519;28;20195;-46
2023/01/22 00:19:22;;;;;;;13.65;7.22;;;-0.80;99.90;;;;;;20470443;28;20079;-46
2023/01/22 00:29:23;;;;;;;13.73;7.07;;;-0.80;99.90;;;;;;20468414;28;20244;-46
2023/01/22 00:39:24;;;;;;;16.45;7.43;;;-0.60;99.90;;;;;;20464587;28;20054;-46
2023/01/22 00:49:25;;;;;;;12.07;6.00;;;-0.50;99.90;;;;;;20467064;28;20120;-46
2023/01/22 00:59:26;;;;;;;8.90;5.03;;;-0.30;99.90;;;;;;20465804;28;20107;-46
2023/01/22 01:09:27;;;;;;;12.88;5.22;;;-0.30;99.90;;;;;;20468372;28;20042;-46
2023/01/22 01:19:28;;;;;;;6.40;3.80;;;-0.10;99.90;;;;;;20458173;28;20032;-46
2023/01/22 01:29:29;;;;;;;7.55;5.20;;;0.20;99.90;;;;;;20464043;28;20063;-46
2023/01/22 01:39:30;;;;;;;7.88;4.35;;;0.40;99.90;;;;;;20463065;28;20483;-46
2023/01/22 01:49:41;;;;;;;6.65;3.45;;;0.50;99.90;;;;;;20458859;28;20372;-46
2023/01/22 01:59:46;;;;;;;5.75;3.63;;;0.60;99.90;;;;;;20459961;28;20466;-46
2023/01/22 02:09:47;;;;;;;9.48;4.03;;;0.70;99.90;;;;;;20455647;28;21193;-46
2023/01/22 02:19:48;;;;;;;10.77;4.00;;;0.80;99.90;;;;;;20471868;28;20039;-46
2023/01/22 02:29:49;;;;;;;6.20;3.03;;;0.90;99.90;;;;;;20469163;28;20047;-46
2023/01/22 02:39:50;;;;;;;14.82;3.25;;;1.00;99.30;;;;;;20484102;28;20046;-46
2023/01/22 02:49:51;;;;;;;5.25;2.70;;;1.10;98.50;;;;;;20492716;28;20491;-46
2023/01/22 02:59:52;;;;;;;6.95;3.38;;;1.20;95.40;;;;;;20481966;28;20066;-46
2023/01/22 03:09:53;;;;;;;7.53;2.35;;;1.20;94.00;;;;;;20482252;28;20047;-46
2023/01/22 03:40:40;;;;;;;8.02;3.05;;;1.00;93.00;;;;;;21813036;23;20480;-45
2023/01/22 03:50:41;;;;;;;7.15;2.90;;;1.10;91.70;;;;;;20551546;28;20109;-45
2023/01/22 04:00:42;;;;;;;3.75;1.98;;;1.00;90.60;;;;;;20556721;28;20047;-45
2023/01/22 04:10:43;;;;;;;5.03;2.47;;;1.00;90.10;;;;;;20541382;28;20046;-45
2023/01/22 04:20:46;;;;;;;4.35;2.03;;;0.90;89.50;;;;;;20546468;28;20097;-45
2023/01/22 04:30:50;;;;;;;5.97;3.33;;;0.80;88.90;;;;;;20556295;28;20062;-45
2023/01/22 04:40:51;;;;;;;6.22;3.00;;;0.90;88.70;;;;;;20549082;28;20054;-45
2023/01/22 04:50:52;;;;;;;9.43;2.83;;;0.80;86.10;;;;;;20548180;28;20035;-45
2023/01/22 05:00:55;;;;;;;7.70;4.10;;;0.70;85.70;;;;;;20545088;28;20038;-45
2023/01/22 05:11:00;;;;;;;9.55;3.40;;;0.80;86.60;;;;;;20554186;28;20051;-45
2023/01/22 05:21:01;;;;;;;8.98;4.25;;;0.90;86.20;;;;;;20554118;28;20054;-45
2023/01/22 05:31:02;;;;;;;8.40;4.50;;;0.90;86.90;;;;;;20550458;28;20043;-45
2023/01/22 05:41:03;;;;;;;5.80;2.88;;;1.00;86.80;;;;;;20541842;28;20058;-45
2023/01/22 05:51:06;;;;;;;8.52;4.45;;;1.10;83.80;;;;;;20538691;28;20097;-45
2023/01/22 06:01:07;;;;;;;7.72;2.63;;;1.10;79.60;;;;;;20551639;28;20431;-46
2023/01/22 06:11:15;;;;;;;6.38;2.78;;;1.10;77.50;;;;;;20564652;28;20038;-45
2023/01/22 06:21:16;;;;;;;6.25;3.45;;;1.10;77.00;;;;;;20567373;28;20270;-45
2023/01/22 06:31:17;;;;;;;3.42;1.95;;;1.20;70.00;;;;;;20564715;28;20045;-45
2023/01/22 06:41:18;;;;;;;4.80;2.08;;;1.30;68.30;;;;;;20566761;28;20039;-46
2023/01/22 06:51:19;;;;;;;3.42;1.95;;;1.30;62.70;;;;;;20563523;28;20058;-45
2023/01/22 07:01:21;;;;;;;5.93;3.47;;;1.30;62.60;;;;;;20567743;28;20097;-46
2023/01/22 07:11:22;;;;;;;4.50;2.38;;;1.30;60.60;;;;;;20567086;28;20077;-46
2023/01/22 07:21:23;;;;;;;5.57;2.17;;;1.30;59.60;;;;;;20557551;28;20592;-45
2023/01/22 07:31:24;;;;;;;5.90;2.72;;;1.30;60.90;;;;;;20558730;28;20058;-45
2023/01/22 07:41:25;;;;;;;5.15;2.83;;;1.20;61.00;;;;;;20550580;28;20081;-45
2023/01/22 07:51:26;;;;;;;4.65;2.33;;;1.20;61.90;;;;;;20545833;28;20054;-45
2023/01/22 08:01:27;;;;;;;6.63;3.58;;;1.10;64.70;;;;;;20548682;28;20042;-46
2023/01/22 08:11:28;;;;;;;8.00;2.97;;;1.10;68.30;;;;;;20509148;28;20078;-45
2023/01/22 08:21:29;;;;;;;4.18;1.80;;;1.30;63.00;;;;;;20538421;28;20077;-46
2023/01/22 08:31:30;;;;;;;5.32;2.75;;;1.20;58.80;;;;;;20543856;28;20046;-45
2023/01/22 08:41:31;;;;;;;5.43;2.85;;;1.10;63.40;;;;;;20545319;28;20042;-45
2023/01/22 08:51:33;;;;;;;4.93;2.92;;;1.20;61.50;;;;;;20536700;28;20182;-45
2023/01/22 09:01:34;;;;;;;6.95;3.22;;;1.30;62.50;;;;;;20544207;28;20411;-46
2023/01/22 09:11:35;;;;;;;2.30;1.25;;;1.30;58.70;;;;;;20535384;28;20145;-45
2023/01/22 09:21:36;;;;;;;3.55;1.65;;;1.30;58.70;;;;;;20537284;28;20141;-45
2023/01/22 09:31:37;;;;;;;4.30;2.35;;;1.40;58.00;;;;;;20529251;28;20581;-46
2023/01/22 09:41:43;;;;;;;6.55;2.50;;;1.30;59.20;;;;;;20544927;28;20449;-46
2023/01/22 09:51:50;;;;;;;4.95;2.20;;;1.30;59.40;;;;;;20547717;28;20120;-46
2023/01/22 10:01:56;;;;;;;4.13;2.03;;;1.30;57.50;;;;;;20554786;28;20081;-46
2023/01/22 10:11:59;;;;;;;3.17;2.20;;;1.30;58.20;;;;;;20555473;28;20519;-45
2023/01/22 10:22:10;;;;;;;2.97;1.83;;;1.30;59.90;;;;;;20556987;28;20075;-45
2023/01/22 10:32:24;;;;;;;4.22;2.30;;;1.50;61.80;;;;;;20545663;28;20502;-45
2023/01/22 10:42:28;;;;;;;3.78;2.08;;;1.60;58.30;;;;;;20552236;28;20755;-45
2023/01/22 10:52:42;;;;;;;3.10;1.33;;;1.70;59.90;;;;;;20554318;28;20081;-46
2023/01/22 11:02:45;;;;;;;5.25;2.17;;;2.00;55.60;;;;;;20572998;28;20148;-46
2023/01/22 11:12:58;;;;;;;5.03;1.98;;;2.30;54.20;;;;;;20566390;28;20879;-45
2023/01/22 11:23:03;;;;;;;4.90;2.00;;;2.20;53.30;;;;;;20560946;28;20062;-45
2023/01/22 11:33:11;;;;;;;4.20;1.60;;;2.60;51.70;;;;;;20562087;28;22809;-46
2023/01/22 11:43:24;;;;;;;4.97;1.67;;;2.70;48.80;;;;;;20544246;28;20268;-46
2023/01/22 11:53:57;;;;;;;2.45;1.40;;;2.60;46.90;;;;;;20498634;28;20127;-46
2023/01/22 12:04:13;;;;;;;5.93;3.38;;;2.30;50.00;;;;;;20541261;28;20831;-46
2023/01/22 12:14:44;;;;;;;4.53;1.33;;;2.30;53.50;;;;;;20541033;28;20192;-45
2023/01/22 12:24:53;;;;;;;2.63;1.35;;;2.30;54.90;;;;;;20548929;28;21997;-46
2023/01/22 12:35:11;;;;;;;4.05;2.10;;;2.50;55.40;;;;;;20545351;28;20128;-46
2023/01/22 12:45:37;;;;;;;2.55;1.50;;;2.50;55.60;;;;;;20550173;28;20219;-45
2023/01/22 12:55:40;;;;;;;4.03;2.17;;;2.50;55.20;;;;;;20522987;28;20173;-47
2023/01/22 13:05:45;;;;;;;3.92;1.50;;;2.50;55.90;;;;;;20528118;28;20140;-45
2023/01/22 13:15:53;;;;;;;2.95;1.15;;;2.50;57.00;;;;;;20547014;28;20902;-46
2023/01/22 13:25:55;;;;;;;4.55;2.28;;;2.50;57.40;;;;;;20552149;28;20552;-45
2023/01/22 13:36:06;;;;;;;5.15;2.08;;;2.60;56.70;;;;;;20542096;28;20058;-46
2023/01/22 13:46:12;;;;;;;6.07;2.55;;;2.50;55.50;;;;;;20537718;28;20133;-46
2023/01/22 13:56:19;;;;;;;5.55;2.15;;;2.40;56.20;;;;;;20523945;28;20188;-46
2023/01/22 14:06:20;;;;;;;4.03;2.33;;;2.50;56.00;;;;;;20519529;28;20798;-46
2023/01/22 14:16:21;;;;;;;5.55;2.50;;;2.50;54.90;;;;;;20527288;28;20047;-46
2023/01/22 14:26:22;;;;;;;3.78;2.35;;;2.40;54.30;;;;;;20535389;28;20086;-45
2023/01/22 14:36:23;;;;;;;6.78;3.40;;;2.50;54.20;;;;;;20557149;28;20045;-45
2023/01/22 14:46:24;;;;;;;14.15;3.80;;;2.50;52.00;;;;;;20549605;28;20050;-45
2023/01/22 14:56:25;;;;;;;4.95;2.13;;;2.40;55.10;;;;;;20548571;28;20111;-45
2023/01/22 15:06:26;;;;;;;6.00;3.33;;;2.40;55.90;;;;;;20539504;28;20561;-45
2023/01/22 15:16:27;;;;;;;7.57;3.35;;;2.30;58.10;;;;;;20530908;28;20576;-45
2023/01/22 15:26:32;;;;;;;6.25;2.40;;;2.30;56.50;;;;;;20540737;28;20470;-45
2023/01/22 15:36:35;;;;;;;8.80;3.20;;;2.20;59.90;;;;;;20540528;28;20089;-45
2023/01/22 15:46:38;;;;;;;8.02;3.33;;;2.20;61.40;;;;;;20546350;28;20866;-45
2023/01/22 15:56:40;;;;;;;7.35;3.67;;;2.20;63.70;;;;;;20542230;28;20129;-45
2023/01/22 16:06:41;;;;;;;5.20;3.28;;;2.10;65.20;;;;;;20549652;28;20127;-45
2023/01/22 16:16:42;;;;;;;5.28;2.67;;;2.10;66.10;;;;;;20555055;28;20050;-45
2023/01/22 16:26:43;;;;;;;6.55;3.30;;;2.10;68.20;;;;;;20547304;28;20093;-45
2023/01/22 16:36:44;;;;;;;7.13;3.85;;;2.00;69.10;;;;;;20538090;28;20043;-45
2023/01/22 16:46:48;;;;;;;6.28;3.15;;;2.10;71.50;;;;;;20543914;28;22040;-45
2023/01/22 16:56:49;;;;;;;5.60;3.65;;;2.10;71.40;;;;;;20547058;28;20038;-45
2023/01/22 17:06:54;;;;;;;6.55;3.83;;;2.10;72.90;;;;;;20543729;28;20125;-46
2023/01/22 17:16:56;;;;;;;4.50;2.55;;;2.10;74.30;;;;;;20546021;28;20500;-46
2023/01/22 17:27:01;;;;;;;4.50;3.28;;;2.10;75.00;;;;;;20537942;28;20578;-46
2023/01/22 17:37:09;;;;;;;6.20;2.70;;;2.20;75.50;;;;;;20541788;28;20197;-46
2023/01/22 17:47:10;;;;;;;7.13;3.30;;;2.20;75.20;;;;;;20537744;28;20432;-45
2023/01/22 17:57:11;;;;;;;6.03;3.08;;;2.30;74.40;;;;;;20541439;28;20516;-45
2023/01/22 18:07:12;;;;;;;8.23;3.78;;;2.30;72.40;;;;;;20532760;28;20035;-45
2023/01/22 18:17:13;;;;;;;6.80;3.90;;;2.30;73.30;;;;;;20542728;28;20375;-46
2023/01/22 18:27:15;;;;;;;8.55;3.47;;;2.30;74.30;;;;;;20536741;28;20545;-45
2023/01/22 18:37:17;;;;;;;6.88;4.40;;;2.30;75.10;;;;;;20525858;28;20751;-45
2023/01/22 18:47:19;;;;;;;9.13;3.38;;;2.20;76.30;;;;;;20529575;28;20477;-46
2023/01/22 18:57:21;;;;;;;9.57;5.32;;;2.30;77.70;;;;;;20537504;28;20446;-46
2023/01/22 19:07:22;;;;;;;9.88;4.82;;;2.30;76.80;;;;;;20534832;28;20031;-46
2023/01/22 19:17:24;;;;;;;6.22;3.22;;;2.30;77.50;;;;;;20547999;28;20034;-46
2023/01/22 19:27:25;;;;;;;33.28;4.72;;;2.40;75.70;;;;;;20558701;28;20446;-46
2023/01/22 19:37:28;;;;;;;11.48;3.25;;;2.40;76.90;;;;;;20550675;28;20446;-46
2023/01/22 19:47:29;;;;;;;9.60;4.05;;;2.40;77.70;;;;;;20551675;28;20418;-46
2023/01/22 19:57:30;;;;;;;9.38;3.33;;;2.40;79.40;;;;;;20544784;28;20031;-46
2023/01/22 20:07:32;;;;;;;13.80;5.63;;;2.40;78.90;;;;;;20540119;28;20181;-46
2023/01/22 20:17:35;;;;;;;9.32;4.65;;;2.40;79.40;;;;;;20543692;28;20181;-46
2023/01/22 20:27:36;;;;;;;8.10;3.85;;;2.40;79.80;;;;;;20550337;28;20046;-46
2023/01/22 20:37:37;;;;;;;5.40;3.67;;;2.40;79.60;;;;;;20536992;28;20318;-46
2023/01/22 20:47:38;;;;;;;8.65;5.80;;;2.40;80.80;;;;;;20544751;28;20322;-46
2023/01/22 20:57:39;;;;;;;14.02;5.97;;;2.40;81.80;;;;;;20540347;28;20038;-45
2023/01/22 21:07:40;;;;;;;10.50;5.57;;;2.40;82.60;;;;;;20540417;28;20206;-46
2023/01/22 21:17:41;;;;;;;9.35;4.07;;;2.40;82.90;;;;;;20546339;28;20110;-46
2023/01/22 21:27:42;;;;;;;11.15;4.07;;;2.40;82.10;;;;;;20543065;28;20043;-46
2023/01/22 21:37:43;;;;;;;12.65;5.30;;;2.50;81.50;;;;;;20529363;28;20054;-45
2023/01/22 21:47:44;;;;;;;10.40;5.28;;;2.50;81.70;;;;;;20539525;28;20521;-45
2023/01/22 21:57:45;;;;;;;8.80;3.30;;;2.40;81.70;;;;;;20558584;28;20660;-46
2023/01/22 22:07:46;;;;;;;6.35;3.70;;;2.50;81.90;;;;;;20558000;28;20476;-46
2023/01/22 22:17:47;;;;;;;7.65;4.15;;;2.40;82.40;;;;;;20566579;28;20046;-46
2023/01/22 22:27:48;;;;;;;6.13;3.90;;;2.50;83.60;;;;;;20582157;28;20057;-46
2023/01/22 22:37:49;;;;;;;6.53;3.08;;;2.50;84.70;;;;;;20556075;28;20050;-46
2023/01/22 22:47:50;;;;;;;6.70;3.53;;;2.50;84.70;;;;;;20563563;28;20538;-46
2023/01/22 22:57:51;;;;;;;7.93;3.85;;;2.50;85.10;;;;;;20569963;28;20038;-46
2023/01/22 23:07:52;;;;;;;5.85;3.53;;;2.50;85.40;;;;;;20571542;28;20042;-46
2023/01/22 23:17:55;;;;;;;10.27;3.90;;;2.40;85.20;;;;;;20580502;28;20564;-46
2023/01/22 23:27:56;;;;;;;7.10;3.28;;;2.40;86.30;;;;;;20573689;28;20046;-46
2023/01/22 23:37:57;;;;;;;4.93;3.72;;;2.40;87.50;;;;;;20566287;28;20057;-46
2023/01/22 23:48:00;;;;;;;7.43;4.80;;;2.50;87.80;;;;;;20568607;28;20050;-46
2023/01/22 23:58:01;;;;;;;10.20;3.63;;;2.40;87.70;;;;;;20569609;28;20104;-46
